< Typhoon 195920 1959 Season Typhoon 195922 >
Typhoon 195921 (FREDA)
General InformationTrack Information on Google Maps || Disaster Info.ResourceGoogle EarthGE AnimationAtom FeedGeoJSON
Detalied Best Track (Time Zone = UTC)
Year Month Day Hour Lat. Long. Pressure (hPa) Wind (kt) Class Image Chart
1959 11 13 00 7.8 137.3 998 0 9 -- Chart
1959 11 13 06 9.0 136.0 998 0 9 -- Chart
1959 11 13 12 9.6 134.5 992 0 9 -- Chart
1959 11 13 18 9.7 133.4 990 0 9 -- Chart
1959 11 14 00 9.8 132.4 990 0 9 -- Chart
1959 11 14 06 9.9 131.4 985 0 9 -- Chart
1959 11 14 12 10.1 130.5 980 0 9 -- Chart
1959 11 14 18 10.6 129.3 980 0 9 -- Chart
1959 11 15 00 11.3 128.3 975 0 9 -- Chart
1959 11 15 06 11.7 127.4 970 0 9 -- Chart
1959 11 15 12 12.1 126.7 960 0 9 -- Chart
1959 11 15 18 12.9 125.9 950 0 9 -- Chart
1959 11 16 00 13.4 124.8 945 0 9 -- Chart
1959 11 16 06 14.0 123.8 945 0 9 -- Chart
1959 11 16 12 14.5 122.9 950 0 9 -- Chart
1959 11 16 18 15.5 122.3 960 0 9 -- Chart
1959 11 17 00 16.4 121.9 970 0 9 -- Chart
1959 11 17 06 17.5 121.8 985 0 9 -- Chart
1959 11 17 12 18.7 121.4 990 0 9 -- Chart
1959 11 17 18 19.5 120.5 990 0 9 -- Chart
1959 11 18 00 20.4 120.4 990 0 9 -- Chart
1959 11 18 06 21.5 120.8 990 0 9 -- Chart
1959 11 18 12 22.7 121.6 990 0 9 -- Chart
1959 11 18 18 23.8 122.5 992 0 9 -- Chart
1959 11 19 00 25.1 124.1 992 0 9 -- Chart
1959 11 19 06 26.4 126.3 996 0 9 -- Chart
1959 11 19 12 27.2 130.0 996 0 6 -- Chart
1959 11 19 18 28.0 134.0 996 0 6 -- Chart
1959 11 20 00 29.2 138.0 996 0 6 -- Chart
1959 11 20 06 30.0 143.0 998 0 6 -- Chart
1959 11 20 12 30.0 149.0 1002 0 6 -- Chart
Japan Meteorological Agency Best Track Data | Correction Date : 1989-06-01
< Typhoon 195920 1959 Season Typhoon 195922 >

Help